Prachuap Khirikhan, Thailand
Current Conditions -  °F | °C
As of 5:00 AM on Wednesday 22 Oct 2014 (Local Time) from VTBU Reporting Station
Haze Haze  
Wind Chill: 26°   Ceiling: Unl
Heat Index: 28°   Visibility: 1.2mi
Dew Point: 25°   Wind: 3mph
Humidity: 94%   Direction: 320°NW
Pressure: 29.85"   Gusts: NA
Location:  11.83°N, 99.83°E
Report Text: VTBU 212200Z 32003KT 2000 BR FEW020CB SCT300 26/25 Q1011 A2987 CB SW LTG
Loading
Personal Weather Stations






























Interactive Weather Map
Tropical Storm Tracking
New forecast layout! Learn more

10-Day Weather Forecast

Advertisements
Track Severe Weather on mobile